sensor_id;sensor_type;location;lat;lon;timestamp;temperature;humidity
21037;DHT22;10677;50.942;4.028;2022-10-19T00:01:39;13.10;99.90
21037;DHT22;10677;50.942;4.028;2022-10-19T00:04:04;13.10;99.90
21037;DHT22;10677;50.942;4.028;2022-10-19T00:06:32;13.00;99.90
21037;DHT22;10677;50.942;4.028;2022-10-19T00:09:05;12.90;99.90
21037;DHT22;10677;50.942;4.028;2022-10-19T00:11:32;12.90;99.90
21037;DHT22;10677;50.942;4.028;2022-10-19T00:13:59;12.90;99.90
21037;DHT22;10677;50.942;4.028;2022-10-19T00:16:30;12.80;99.90
21037;DHT22;10677;50.942;4.028;2022-10-19T00:18:58;12.90;99.90
21037;DHT22;10677;50.942;4.028;2022-10-19T00:21:23;12.90;99.90
21037;DHT22;10677;50.942;4.028;2022-10-19T00:23:49;12.80;99.90
21037;DHT22;10677;50.942;4.028;2022-10-19T00:26:15;12.90;99.90
21037;DHT22;10677;50.942;4.028;2022-10-19T00:28:41;12.90;99.90
21037;DHT22;10677;50.942;4.028;2022-10-19T00:31:10;12.80;99.90
21037;DHT22;10677;50.942;4.028;2022-10-19T00:33:36;12.80;99.90
21037;DHT22;10677;50.942;4.028;2022-10-19T00:36:02;12.80;99.90
21037;DHT22;10677;50.942;4.028;2022-10-19T00:38:28;12.80;99.90
21037;DHT22;10677;50.942;4.028;2022-10-19T00:40:53;12.70;99.90
21037;DHT22;10677;50.942;4.028;2022-10-19T00:43:27;12.70;99.90
21037;DHT22;10677;50.942;4.028;2022-10-19T00:45:54;12.60;99.90
21037;DHT22;10677;50.942;4.028;2022-10-19T00:48:30;12.60;99.90
21037;DHT22;10677;50.942;4.028;2022-10-19T00:50:58;12.60;99.90
21037;DHT22;10677;50.942;4.028;2022-10-19T00:53:26;12.50;99.90
21037;DHT22;10677;50.942;4.028;2022-10-19T00:55:53;12.50;99.90
21037;DHT22;10677;50.942;4.028;2022-10-19T00:58:19;12.60;99.90
21037;DHT22;10677;50.942;4.028;2022-10-19T01:00:45;12.60;99.90
21037;DHT22;10677;50.942;4.028;2022-10-19T01:03:11;12.60;99.90
21037;DHT22;10677;50.942;4.028;2022-10-19T01:05:38;12.60;99.90
21037;DHT22;10677;50.942;4.028;2022-10-19T01:08:05;12.60;99.90
21037;DHT22;10677;50.942;4.028;2022-10-19T01:22:26;12.40;99.90
21037;DHT22;10677;50.942;4.028;2022-10-19T01:33:18;12.30;99.90
21037;DHT22;10677;50.942;4.028;2022-10-19T01:36:05;12.30;99.90
21037;DHT22;10677;50.942;4.028;2022-10-19T01:38:40;12.40;99.90
21037;DHT22;10677;50.942;4.028;2022-10-19T01:46:43;12.30;99.90
21037;DHT22;10677;50.942;4.028;2022-10-19T01:49:37;12.20;99.90
21037;DHT22;10677;50.942;4.028;2022-10-19T01:52:08;12.20;99.90
21037;DHT22;10677;50.942;4.028;2022-10-19T01:54:41;12.10;99.90
21037;DHT22;10677;50.942;4.028;2022-10-19T01:57:10;12.10;99.90
21037;DHT22;10677;50.942;4.028;2022-10-19T01:59:38;12.00;99.90
21037;DHT22;10677;50.942;4.028;2022-10-19T02:02:06;12.10;99.90
21037;DHT22;10677;50.942;4.028;2022-10-19T02:04:32;12.20;99.90
21037;DHT22;10677;50.942;4.028;2022-10-19T02:07:01;12.10;99.90
21037;DHT22;10677;50.942;4.028;2022-10-19T02:09:27;12.10;99.90
21037;DHT22;10677;50.942;4.028;2022-10-19T02:11:56;12.00;99.90
21037;DHT22;10677;50.942;4.028;2022-10-19T02:14:28;12.00;99.90
21037;DHT22;10677;50.942;4.028;2022-10-19T02:17:02;11.90;99.90
21037;DHT22;10677;50.942;4.028;2022-10-19T02:19:29;11.90;99.90
21037;DHT22;10677;50.942;4.028;2022-10-19T02:21:55;11.90;99.90
21037;DHT22;10677;50.942;4.028;2022-10-19T02:24:21;12.00;99.90
21037;DHT22;10677;50.942;4.028;2022-10-19T02:26:47;12.00;99.90
21037;DHT22;10677;50.942;4.028;2022-10-19T02:29:14;12.00;99.90
21037;DHT22;10677;50.942;4.028;2022-10-19T02:31:40;11.90;99.90
21037;DHT22;10677;50.942;4.028;2022-10-19T02:34:06;11.90;99.90
21037;DHT22;10677;50.942;4.028;2022-10-19T02:36:35;11.90;99.90
21037;DHT22;10677;50.942;4.028;2022-10-19T02:39:01;11.90;99.90
21037;DHT22;10677;50.942;4.028;2022-10-19T02:41:41;11.90;99.90
21037;DHT22;10677;50.942;4.028;2022-10-19T02:44:16;11.90;99.90
21037;DHT22;10677;50.942;4.028;2022-10-19T02:47:38;12.00;99.90
21037;DHT22;10677;50.942;4.028;2022-10-19T02:49:57;11.90;99.90
21037;DHT22;10677;50.942;4.028;2022-10-19T02:52:23;11.90;99.90
21037;DHT22;10677;50.942;4.028;2022-10-19T02:54:48;11.90;99.90
21037;DHT22;10677;50.942;4.028;2022-10-19T02:57:20;11.90;99.90
21037;DHT22;10677;50.942;4.028;2022-10-19T02:59:46;11.80;99.90
21037;DHT22;10677;50.942;4.028;2022-10-19T03:02:13;11.80;99.90
21037;DHT22;10677;50.942;4.028;2022-10-19T03:04:38;11.80;99.90
21037;DHT22;10677;50.942;4.028;2022-10-19T03:07:07;11.80;99.90
21037;DHT22;10677;50.942;4.028;2022-10-19T03:09:32;11.70;99.90
21037;DHT22;10677;50.942;4.028;2022-10-19T03:11:58;11.70;99.90
21037;DHT22;10677;50.942;4.028;2022-10-19T03:14:24;11.70;99.90
21037;DHT22;10677;50.942;4.028;2022-10-19T03:16:49;11.70;99.90
21037;DHT22;10677;50.942;4.028;2022-10-19T03:19:15;11.60;99.90
21037;DHT22;10677;50.942;4.028;2022-10-19T03:21:41;11.70;99.90
21037;DHT22;10677;50.942;4.028;2022-10-19T03:24:06;11.70;99.90
21037;DHT22;10677;50.942;4.028;2022-10-19T03:26:32;11.70;99.90
21037;DHT22;10677;50.942;4.028;2022-10-19T03:28:57;11.60;99.90
21037;DHT22;10677;50.942;4.028;2022-10-19T03:31:23;11.60;99.90
21037;DHT22;10677;50.942;4.028;2022-10-19T03:33:48;11.60;99.90
21037;DHT22;10677;50.942;4.028;2022-10-19T03:36:40;11.60;99.90
21037;DHT22;10677;50.942;4.028;2022-10-19T03:39:10;11.60;99.90
21037;DHT22;10677;50.942;4.028;2022-10-19T03:41:36;11.70;99.90
21037;DHT22;10677;50.942;4.028;2022-10-19T03:44:03;11.70;99.90
21037;DHT22;10677;50.942;4.028;2022-10-19T03:46:30;11.60;99.90
21037;DHT22;10677;50.942;4.028;2022-10-19T03:48:55;11.70;99.90
21037;DHT22;10677;50.942;4.028;2022-10-19T03:51:23;11.70;99.90
21037;DHT22;10677;50.942;4.028;2022-10-19T03:53:54;11.70;99.90
21037;DHT22;10677;50.942;4.028;2022-10-19T03:56:22;11.70;99.90
21037;DHT22;10677;50.942;4.028;2022-10-19T03:58:49;11.70;99.90
21037;DHT22;10677;50.942;4.028;2022-10-19T04:01:17;11.70;99.90
21037;DHT22;10677;50.942;4.028;2022-10-19T04:03:44;11.70;99.90
21037;DHT22;10677;50.942;4.028;2022-10-19T04:06:13;11.80;99.90
21037;DHT22;10677;50.942;4.028;2022-10-19T04:08:39;11.70;99.90
21037;DHT22;10677;50.942;4.028;2022-10-19T04:11:07;11.60;99.90
21037;DHT22;10677;50.942;4.028;2022-10-19T04:13:33;11.70;99.90
21037;DHT22;10677;50.942;4.028;2022-10-19T04:15:59;11.70;99.90
21037;DHT22;10677;50.942;4.028;2022-10-19T04:18:25;11.70;99.90
21037;DHT22;10677;50.942;4.028;2022-10-19T04:21:02;11.60;99.90
21037;DHT22;10677;50.942;4.028;2022-10-19T04:23:33;11.60;99.90
21037;DHT22;10677;50.942;4.028;2022-10-19T04:26:06;11.60;99.90
21037;DHT22;10677;50.942;4.028;2022-10-19T04:28:32;11.60;99.90
21037;DHT22;10677;50.942;4.028;2022-10-19T04:31:01;11.50;99.90
21037;DHT22;10677;50.942;4.028;2022-10-19T04:33:27;11.50;99.90
21037;DHT22;10677;50.942;4.028;2022-10-19T04:36:07;11.60;99.90
21037;DHT22;10677;50.942;4.028;2022-10-19T04:38:33;11.60;99.90
21037;DHT22;10677;50.942;4.028;2022-10-19T04:41:08;11.60;99.90
21037;DHT22;10677;50.942;4.028;2022-10-19T04:43:34;11.60;99.90
21037;DHT22;10677;50.942;4.028;2022-10-19T04:46:18;11.60;99.90
21037;DHT22;10677;50.942;4.028;2022-10-19T04:48:45;11.60;99.90
21037;DHT22;10677;50.942;4.028;2022-10-19T04:51:12;11.60;99.90
21037;DHT22;10677;50.942;4.028;2022-10-19T04:53:39;11.60;99.90
21037;DHT22;10677;50.942;4.028;2022-10-19T04:56:07;11.60;99.90
21037;DHT22;10677;50.942;4.028;2022-10-19T04:58:33;11.60;99.90
21037;DHT22;10677;50.942;4.028;2022-10-19T05:01:05;11.60;99.90
21037;DHT22;10677;50.942;4.028;2022-10-19T05:03:30;11.50;99.90
21037;DHT22;10677;50.942;4.028;2022-10-19T05:05:58;11.60;99.90
21037;DHT22;10677;50.942;4.028;2022-10-19T05:08:23;11.70;99.90
21037;DHT22;10677;50.942;4.028;2022-10-19T05:10:49;11.70;99.90
21037;DHT22;10677;50.942;4.028;2022-10-19T05:13:15;11.70;99.90
21037;DHT22;10677;50.942;4.028;2022-10-19T05:15:40;11.70;99.90
21037;DHT22;10677;50.942;4.028;2022-10-19T05:18:06;11.70;99.90
21037;DHT22;10677;50.942;4.028;2022-10-19T05:20:32;11.50;99.90
21037;DHT22;10677;50.942;4.028;2022-10-19T05:22:57;11.50;99.90
21037;DHT22;10677;50.942;4.028;2022-10-19T05:25:23;11.40;99.90
21037;DHT22;10677;50.942;4.028;2022-10-19T05:27:52;11.40;99.90
21037;DHT22;10677;50.942;4.028;2022-10-19T05:30:19;11.40;99.90
21037;DHT22;10677;50.942;4.028;2022-10-19T05:32:46;11.40;99.90
21037;DHT22;10677;50.942;4.028;2022-10-19T05:35:12;11.40;99.90
21037;DHT22;10677;50.942;4.028;2022-10-19T05:37:38;11.40;99.90
21037;DHT22;10677;50.942;4.028;2022-10-19T05:40:04;11.50;99.90
21037;DHT22;10677;50.942;4.028;2022-10-19T05:42:29;11.50;99.90
21037;DHT22;10677;50.942;4.028;2022-10-19T05:44:55;11.40;99.90
21037;DHT22;10677;50.942;4.028;2022-10-19T05:47:20;11.40;99.90
21037;DHT22;10677;50.942;4.028;2022-10-19T05:49:46;11.50;99.90
21037;DHT22;10677;50.942;4.028;2022-10-19T05:52:12;11.40;99.90
21037;DHT22;10677;50.942;4.028;2022-10-19T05:54:38;11.50;99.90
21037;DHT22;10677;50.942;4.028;2022-10-19T05:57:04;11.50;99.90
21037;DHT22;10677;50.942;4.028;2022-10-19T05:59:29;11.50;99.90
21037;DHT22;10677;50.942;4.028;2022-10-19T06:01:55;11.50;99.90
21037;DHT22;10677;50.942;4.028;2022-10-19T06:04:21;11.50;99.90
21037;DHT22;10677;50.942;4.028;2022-10-19T06:06:46;11.50;99.90
21037;DHT22;10677;50.942;4.028;2022-10-19T06:09:12;11.50;99.90
21037;DHT22;10677;50.942;4.028;2022-10-19T06:11:39;11.40;99.90
21037;DHT22;10677;50.942;4.028;2022-10-19T06:14:08;11.50;99.90
21037;DHT22;10677;50.942;4.028;2022-10-19T06:16:35;11.50;99.90
21037;DHT22;10677;50.942;4.028;2022-10-19T06:19:02;11.50;99.90
21037;DHT22;10677;50.942;4.028;2022-10-19T06:21:30;11.50;99.90
21037;DHT22;10677;50.942;4.028;2022-10-19T06:23:59;11.40;99.90
21037;DHT22;10677;50.942;4.028;2022-10-19T06:26:25;11.40;99.90
21037;DHT22;10677;50.942;4.028;2022-10-19T06:28:54;11.40;99.90
21037;DHT22;10677;50.942;4.028;2022-10-19T06:31:20;11.40;99.90
21037;DHT22;10677;50.942;4.028;2022-10-19T06:33:46;11.40;99.90
21037;DHT22;10677;50.942;4.028;2022-10-19T06:36:14;11.50;99.90
21037;DHT22;10677;50.942;4.028;2022-10-19T06:38:41;11.50;99.90
21037;DHT22;10677;50.942;4.028;2022-10-19T06:41:07;11.60;99.90
21037;DHT22;10677;50.942;4.028;2022-10-19T06:43:34;11.60;99.90
21037;DHT22;10677;50.942;4.028;2022-10-19T06:46:12;11.50;99.90
21037;DHT22;10677;50.942;4.028;2022-10-19T06:48:40;11.50;99.90
21037;DHT22;10677;50.942;4.028;2022-10-19T06:51:06;11.50;99.90
21037;DHT22;10677;50.942;4.028;2022-10-19T06:53:33;11.40;99.90
21037;DHT22;10677;50.942;4.028;2022-10-19T06:56:00;11.40;99.90
21037;DHT22;10677;50.942;4.028;2022-10-19T06:58:26;11.30;99.90
21037;DHT22;10677;50.942;4.028;2022-10-19T07:00:56;11.30;99.90
21037;DHT22;10677;50.942;4.028;2022-10-19T07:03:23;11.30;99.90
21037;DHT22;10677;50.942;4.028;2022-10-19T07:05:56;11.40;99.90
21037;DHT22;10677;50.942;4.028;2022-10-19T07:08:23;11.30;99.90
21037;DHT22;10677;50.942;4.028;2022-10-19T07:10:53;11.30;99.90
21037;DHT22;10677;50.942;4.028;2022-10-19T07:13:19;11.40;99.90
21037;DHT22;10677;50.942;4.028;2022-10-19T07:15:46;11.60;99.90
21037;DHT22;10677;50.942;4.028;2022-10-19T07:18:11;11.70;99.90
21037;DHT22;10677;50.942;4.028;2022-10-19T07:20:37;11.70;99.90
21037;DHT22;10677;50.942;4.028;2022-10-19T07:23:03;11.80;99.90
21037;DHT22;10677;50.942;4.028;2022-10-19T07:25:29;11.90;99.90
21037;DHT22;10677;50.942;4.028;2022-10-19T07:27:55;12.00;99.90
21037;DHT22;10677;50.942;4.028;2022-10-19T07:30:22;12.00;99.90
21037;DHT22;10677;50.942;4.028;2022-10-19T07:32:48;12.10;99.90
21037;DHT22;10677;50.942;4.028;2022-10-19T07:35:14;12.20;99.90
21037;DHT22;10677;50.942;4.028;2022-10-19T07:37:42;12.30;99.90
21037;DHT22;10677;50.942;4.028;2022-10-19T07:40:08;12.30;99.90
21037;DHT22;10677;50.942;4.028;2022-10-19T07:42:34;12.30;99.90
21037;DHT22;10677;50.942;4.028;2022-10-19T07:45:02;12.40;99.90
21037;DHT22;10677;50.942;4.028;2022-10-19T07:47:28;12.30;99.90
21037;DHT22;10677;50.942;4.028;2022-10-19T07:49:53;12.40;99.90
21037;DHT22;10677;50.942;4.028;2022-10-19T07:52:19;12.60;99.90
21037;DHT22;10677;50.942;4.028;2022-10-19T07:54:45;12.60;99.90
21037;DHT22;10677;50.942;4.028;2022-10-19T07:57:14;12.60;99.90
21037;DHT22;10677;50.942;4.028;2022-10-19T07:59:39;12.70;99.90
21037;DHT22;10677;50.942;4.028;2022-10-19T08:02:09;12.70;99.90
21037;DHT22;10677;50.942;4.028;2022-10-19T08:04:38;12.70;99.90
21037;DHT22;10677;50.942;4.028;2022-10-19T08:07:04;12.90;99.90
21037;DHT22;10677;50.942;4.028;2022-10-19T08:09:29;13.00;99.90
21037;DHT22;10677;50.942;4.028;2022-10-19T08:11:56;13.00;99.90
21037;DHT22;10677;50.942;4.028;2022-10-19T08:14:21;13.00;99.90
21037;DHT22;10677;50.942;4.028;2022-10-19T08:16:47;12.90;99.90
21037;DHT22;10677;50.942;4.028;2022-10-19T08:19:14;12.80;99.90
21037;DHT22;10677;50.942;4.028;2022-10-19T08:21:42;12.80;99.90
21037;DHT22;10677;50.942;4.028;2022-10-19T08:24:08;12.90;99.90
21037;DHT22;10677;50.942;4.028;2022-10-19T08:26:36;12.90;99.90
21037;DHT22;10677;50.942;4.028;2022-10-19T08:29:10;12.90;99.90
21037;DHT22;10677;50.942;4.028;2022-10-19T08:31:37;13.00;99.90
21037;DHT22;10677;50.942;4.028;2022-10-19T08:34:03;13.00;99.90
21037;DHT22;10677;50.942;4.028;2022-10-19T08:36:29;12.90;99.90
21037;DHT22;10677;50.942;4.028;2022-10-19T08:38:56;12.90;99.90
21037;DHT22;10677;50.942;4.028;2022-10-19T08:47:12;12.90;99.90
21037;DHT22;10677;50.942;4.028;2022-10-19T08:49:39;12.90;99.90
21037;DHT22;10677;50.942;4.028;2022-10-19T08:52:11;12.80;99.90
21037;DHT22;10677;50.942;4.028;2022-10-19T08:57:26;12.90;99.90
21037;DHT22;10677;50.942;4.028;2022-10-19T09:00:11;13.00;99.90
21037;DHT22;10677;50.942;4.028;2022-10-19T09:05:44;13.20;99.90
21037;DHT22;10677;50.942;4.028;2022-10-19T09:08:12;13.30;99.90
21037;DHT22;10677;50.942;4.028;2022-10-19T09:10:42;13.50;99.90
21037;DHT22;10677;50.942;4.028;2022-10-19T09:13:14;13.60;99.90
21037;DHT22;10677;50.942;4.028;2022-10-19T09:15:44;13.60;99.90
21037;DHT22;10677;50.942;4.028;2022-10-19T09:20:48;13.60;99.90
21037;DHT22;10677;50.942;4.028;2022-10-19T09:25:55;14.00;99.90
21037;DHT22;10677;50.942;4.028;2022-10-19T09:30:54;14.10;99.90
21037;DHT22;10677;50.942;4.028;2022-10-19T09:33:29;14.20;99.90
21037;DHT22;10677;50.942;4.028;2022-10-19T09:35:56;14.30;99.90
21037;DHT22;10677;50.942;4.028;2022-10-19T09:38:25;14.40;99.90
21037;DHT22;10677;50.942;4.028;2022-10-19T09:40:51;14.30;99.90
21037;DHT22;10677;50.942;4.028;2022-10-19T09:43:18;14.30;99.90
21037;DHT22;10677;50.942;4.028;2022-10-19T09:45:59;14.50;99.90
21037;DHT22;10677;50.942;4.028;2022-10-19T09:48:57;14.50;99.90
21037;DHT22;10677;50.942;4.028;2022-10-19T09:51:23;14.50;99.90
21037;DHT22;10677;50.942;4.028;2022-10-19T09:53:52;14.50;99.90
21037;DHT22;10677;50.942;4.028;2022-10-19T09:56:23;14.60;99.90
21037;DHT22;10677;50.942;4.028;2022-10-19T09:58:57;14.80;99.90
21037;DHT22;10677;50.942;4.028;2022-10-19T10:01:35;15.00;99.90
21037;DHT22;10677;50.942;4.028;2022-10-19T10:04:15;15.10;99.90
21037;DHT22;10677;50.942;4.028;2022-10-19T10:06:42;15.30;99.90
21037;DHT22;10677;50.942;4.028;2022-10-19T10:09:22;15.40;99.90
21037;DHT22;10677;50.942;4.028;2022-10-19T10:11:50;15.40;99.90
21037;DHT22;10677;50.942;4.028;2022-10-19T10:14:31;15.40;99.90
21037;DHT22;10677;50.942;4.028;2022-10-19T10:17:02;15.50;99.90
21037;DHT22;10677;50.942;4.028;2022-10-19T10:19:29;15.60;99.90
21037;DHT22;10677;50.942;4.028;2022-10-19T10:21:56;15.50;99.90
21037;DHT22;10677;50.942;4.028;2022-10-19T10:24:31;15.40;99.90
21037;DHT22;10677;50.942;4.028;2022-10-19T10:27:03;15.60;99.90
21037;DHT22;10677;50.942;4.028;2022-10-19T10:29:32;15.70;99.90
21037;DHT22;10677;50.942;4.028;2022-10-19T10:32:12;15.70;99.90
21037;DHT22;10677;50.942;4.028;2022-10-19T10:34:41;15.70;99.90
21037;DHT22;10677;50.942;4.028;2022-10-19T10:37:20;15.70;99.90
21037;DHT22;10677;50.942;4.028;2022-10-19T10:39:53;15.80;99.90
21037;DHT22;10677;50.942;4.028;2022-10-19T10:42:43;15.80;99.90
21037;DHT22;10677;50.942;4.028;2022-10-19T10:47:44;16.10;99.90
21037;DHT22;10677;50.942;4.028;2022-10-19T10:50:25;16.20;99.90
21037;DHT22;10677;50.942;4.028;2022-10-19T10:53:04;16.30;99.90
21037;DHT22;10677;50.942;4.028;2022-10-19T10:55:31;16.50;99.90
21037;DHT22;10677;50.942;4.028;2022-10-19T10:58:15;16.60;99.90
21037;DHT22;10677;50.942;4.028;2022-10-19T11:00:43;16.50;99.90
21037;DHT22;10677;50.942;4.028;2022-10-19T11:03:19;16.60;99.90
21037;DHT22;10677;50.942;4.028;2022-10-19T11:05:52;16.90;99.90
21037;DHT22;10677;50.942;4.028;2022-10-19T11:08:48;17.10;99.90
21037;DHT22;10677;50.942;4.028;2022-10-19T11:11:22;17.20;99.90
21037;DHT22;10677;50.942;4.028;2022-10-19T11:16:44;17.20;99.90
21037;DHT22;10677;50.942;4.028;2022-10-19T11:19:46;17.20;99.90
21037;DHT22;10677;50.942;4.028;2022-10-19T11:30:32;17.70;99.90
21037;DHT22;10677;50.942;4.028;2022-10-19T11:33:33;17.80;99.90
21037;DHT22;10677;50.942;4.028;2022-10-19T11:44:52;18.00;99.90
21037;DHT22;10677;50.942;4.028;2022-10-19T11:55:44;18.10;99.90
21037;DHT22;10677;50.942;4.028;2022-10-19T11:58:47;18.30;99.90
21037;DHT22;10677;50.942;4.028;2022-10-19T12:01:27;18.30;99.90
21037;DHT22;10677;50.942;4.028;2022-10-19T12:14:47;18.60;99.90
21037;DHT22;10677;50.942;4.028;2022-10-19T12:17:20;18.60;99.90
21037;DHT22;10677;50.942;4.028;2022-10-19T12:19:53;18.70;99.90
21037;DHT22;10677;50.942;4.028;2022-10-19T12:22:22;18.80;99.90
21037;DHT22;10677;50.942;4.028;2022-10-19T12:24:50;19.00;99.90
21037;DHT22;10677;50.942;4.028;2022-10-19T12:27:26;19.00;99.90
21037;DHT22;10677;50.942;4.028;2022-10-19T12:29:52;18.90;99.90
21037;DHT22;10677;50.942;4.028;2022-10-19T12:32:21;18.90;99.90
21037;DHT22;10677;50.942;4.028;2022-10-19T12:37:33;19.00;99.90
21037;DHT22;10677;50.942;4.028;2022-10-19T12:46:23;19.40;99.90
21037;DHT22;10677;50.942;4.028;2022-10-19T12:48:26;19.40;99.90
21037;DHT22;10677;50.942;4.028;2022-10-19T12:53:27;19.60;99.90
21037;DHT22;10677;50.942;4.028;2022-10-19T12:56:19;19.70;99.90
21037;DHT22;10677;50.942;4.028;2022-10-19T13:01:26;19.90;99.90
21037;DHT22;10677;50.942;4.028;2022-10-19T13:04:08;19.80;99.90
21037;DHT22;10677;50.942;4.028;2022-10-19T13:06:41;19.80;99.90
21037;DHT22;10677;50.942;4.028;2022-10-19T13:09:22;20.00;99.90
21037;DHT22;10677;50.942;4.028;2022-10-19T13:15:00;20.10;99.90
21037;DHT22;10677;50.942;4.028;2022-10-19T13:22:45;20.10;99.90
21037;DHT22;10677;50.942;4.028;2022-10-19T13:35:44;20.40;99.90
21037;DHT22;10677;50.942;4.028;2022-10-19T13:43:20;20.40;99.90
21037;DHT22;10677;50.942;4.028;2022-10-19T13:46:13;20.50;99.90
21037;DHT22;10677;50.942;4.028;2022-10-19T13:48:48;20.80;99.90
21037;DHT22;10677;50.942;4.028;2022-10-19T14:07:48;21.20;99.90
21037;DHT22;10677;50.942;4.028;2022-10-19T14:10:20;21.40;99.90
21037;DHT22;10677;50.942;4.028;2022-10-19T14:12:47;22.00;99.90
21037;DHT22;10677;50.942;4.028;2022-10-19T14:17:43;23.30;99.90
21037;DHT22;10677;50.942;4.028;2022-10-19T14:22:53;23.80;99.90
21037;DHT22;10677;50.942;4.028;2022-10-19T14:25:23;23.30;99.90
21037;DHT22;10677;50.942;4.028;2022-10-19T14:27:59;23.10;99.90
21037;DHT22;10677;50.942;4.028;2022-10-19T14:30:30;22.90;99.90
21037;DHT22;10677;50.942;4.028;2022-10-19T14:32:58;22.70;99.90
21037;DHT22;10677;50.942;4.028;2022-10-19T14:35:32;23.00;99.90
21037;DHT22;10677;50.942;4.028;2022-10-19T14:37:59;22.90;99.90
21037;DHT22;10677;50.942;4.028;2022-10-19T14:40:30;23.50;99.90
21037;DHT22;10677;50.942;4.028;2022-10-19T14:42:58;24.80;99.90
21037;DHT22;10677;50.942;4.028;2022-10-19T14:45:29;25.40;99.90
21037;DHT22;10677;50.942;4.028;2022-10-19T14:48:03;24.80;99.90
21037;DHT22;10677;50.942;4.028;2022-10-19T14:50:54;23.90;99.90
21037;DHT22;10677;50.942;4.028;2022-10-19T14:56:08;22.00;99.90
21037;DHT22;10677;50.942;4.028;2022-10-19T14:58:51;21.60;99.90
21037;DHT22;10677;50.942;4.028;2022-10-19T15:01:19;21.30;99.90
21037;DHT22;10677;50.942;4.028;2022-10-19T15:03:45;21.30;99.90
21037;DHT22;10677;50.942;4.028;2022-10-19T15:06:21;21.30;99.90
21037;DHT22;10677;50.942;4.028;2022-10-19T15:09:00;21.40;99.90
21037;DHT22;10677;50.942;4.028;2022-10-19T15:11:38;21.30;99.90
21037;DHT22;10677;50.942;4.028;2022-10-19T15:14:08;21.40;99.90
21037;DHT22;10677;50.942;4.028;2022-10-19T15:16:48;21.30;99.90
21037;DHT22;10677;50.942;4.028;2022-10-19T15:19:22;21.30;99.90
21037;DHT22;10677;50.942;4.028;2022-10-19T15:27:37;21.20;99.90
21037;DHT22;10677;50.942;4.028;2022-10-19T15:30:18;21.00;99.90
21037;DHT22;10677;50.942;4.028;2022-10-19T15:35:25;20.60;99.90
21037;DHT22;10677;50.942;4.028;2022-10-19T15:38:02;20.40;99.90
21037;DHT22;10677;50.942;4.028;2022-10-19T15:40:39;20.20;99.90
21037;DHT22;10677;50.942;4.028;2022-10-19T15:53:51;19.40;99.90
21037;DHT22;10677;50.942;4.028;2022-10-19T15:56:18;19.30;99.90
21037;DHT22;10677;50.942;4.028;2022-10-19T15:58:48;19.10;99.90
21037;DHT22;10677;50.942;4.028;2022-10-19T16:01:25;18.90;99.90
21037;DHT22;10677;50.942;4.028;2022-10-19T16:03:51;18.90;99.90
21037;DHT22;10677;50.942;4.028;2022-10-19T16:06:18;18.80;99.90
21037;DHT22;10677;50.942;4.028;2022-10-19T16:08:44;18.80;99.90
21037;DHT22;10677;50.942;4.028;2022-10-19T16:11:15;18.80;99.90
21037;DHT22;10677;50.942;4.028;2022-10-19T16:13:41;18.70;99.90
21037;DHT22;10677;50.942;4.028;2022-10-19T16:16:09;18.40;99.90
21037;DHT22;10677;50.942;4.028;2022-10-19T16:18:35;18.20;99.90
21037;DHT22;10677;50.942;4.028;2022-10-19T16:21:01;18.10;99.90
21037;DHT22;10677;50.942;4.028;2022-10-19T16:23:27;18.00;99.90
21037;DHT22;10677;50.942;4.028;2022-10-19T16:25:52;17.90;99.90
21037;DHT22;10677;50.942;4.028;2022-10-19T16:28:19;17.70;99.90
21037;DHT22;10677;50.942;4.028;2022-10-19T16:30:50;17.60;99.90
21037;DHT22;10677;50.942;4.028;2022-10-19T16:33:16;17.60;99.90
21037;DHT22;10677;50.942;4.028;2022-10-19T16:35:42;17.50;99.90
21037;DHT22;10677;50.942;4.028;2022-10-19T16:38:07;17.40;99.90
21037;DHT22;10677;50.942;4.028;2022-10-19T16:40:33;17.40;99.90
21037;DHT22;10677;50.942;4.028;2022-10-19T16:42:58;17.40;99.90
21037;DHT22;10677;50.942;4.028;2022-10-19T16:45:26;17.40;99.90
21037;DHT22;10677;50.942;4.028;2022-10-19T16:47:51;17.20;99.90
21037;DHT22;10677;50.942;4.028;2022-10-19T16:50:17;17.20;99.90
21037;DHT22;10677;50.942;4.028;2022-10-19T16:52:43;17.10;99.90
21037;DHT22;10677;50.942;4.028;2022-10-19T16:55:09;17.10;99.90
21037;DHT22;10677;50.942;4.028;2022-10-19T16:57:34;16.90;99.90
21037;DHT22;10677;50.942;4.028;2022-10-19T17:00:00;16.90;99.90
21037;DHT22;10677;50.942;4.028;2022-10-19T17:02:25;16.80;99.90
21037;DHT22;10677;50.942;4.028;2022-10-19T17:04:51;16.80;99.90
21037;DHT22;10677;50.942;4.028;2022-10-19T17:07:18;17.00;99.90
21037;DHT22;10677;50.942;4.028;2022-10-19T17:09:43;16.70;99.90
21037;DHT22;10677;50.942;4.028;2022-10-19T17:12:10;16.70;99.90
21037;DHT22;10677;50.942;4.028;2022-10-19T17:14:38;16.70;99.90
21037;DHT22;10677;50.942;4.028;2022-10-19T17:17:04;16.70;99.90
21037;DHT22;10677;50.942;4.028;2022-10-19T17:19:30;16.70;99.90
21037;DHT22;10677;50.942;4.028;2022-10-19T17:21:55;16.60;99.90
21037;DHT22;10677;50.942;4.028;2022-10-19T17:24:22;16.50;99.90
21037;DHT22;10677;50.942;4.028;2022-10-19T17:26:49;16.50;99.90
21037;DHT22;10677;50.942;4.028;2022-10-19T17:29:15;16.40;99.90
21037;DHT22;10677;50.942;4.028;2022-10-19T17:31:41;16.30;99.90
21037;DHT22;10677;50.942;4.028;2022-10-19T17:34:07;16.30;99.90
21037;DHT22;10677;50.942;4.028;2022-10-19T17:36:36;16.20;99.90
21037;DHT22;10677;50.942;4.028;2022-10-19T17:39:07;16.10;99.90
21037;DHT22;10677;50.942;4.028;2022-10-19T17:41:33;16.10;99.90
21037;DHT22;10677;50.942;4.028;2022-10-19T17:43:59;16.10;99.90
21037;DHT22;10677;50.942;4.028;2022-10-19T17:46:28;16.10;99.90
21037;DHT22;10677;50.942;4.028;2022-10-19T17:48:55;16.10;99.90
21037;DHT22;10677;50.942;4.028;2022-10-19T17:51:23;16.00;99.90
21037;DHT22;10677;50.942;4.028;2022-10-19T17:53:54;16.00;99.90
21037;DHT22;10677;50.942;4.028;2022-10-19T17:56:20;16.00;99.90
21037;DHT22;10677;50.942;4.028;2022-10-19T17:58:47;15.90;99.90
21037;DHT22;10677;50.942;4.028;2022-10-19T18:01:14;15.90;99.90
21037;DHT22;10677;50.942;4.028;2022-10-19T18:03:40;15.90;99.90
21037;DHT22;10677;50.942;4.028;2022-10-19T18:06:14;16.00;99.90
21037;DHT22;10677;50.942;4.028;2022-10-19T18:08:43;15.90;99.90
21037;DHT22;10677;50.942;4.028;2022-10-19T18:11:23;15.90;99.90
21037;DHT22;10677;50.942;4.028;2022-10-19T18:13:50;15.80;99.90
21037;DHT22;10677;50.942;4.028;2022-10-19T18:16:31;15.70;99.90
21037;DHT22;10677;50.942;4.028;2022-10-19T18:18:58;15.70;99.90
21037;DHT22;10677;50.942;4.028;2022-10-19T18:21:32;15.70;99.90
21037;DHT22;10677;50.942;4.028;2022-10-19T18:23:59;15.60;99.90
21037;DHT22;10677;50.942;4.028;2022-10-19T18:26:28;15.70;99.90
21037;DHT22;10677;50.942;4.028;2022-10-19T18:28:54;15.70;99.90
21037;DHT22;10677;50.942;4.028;2022-10-19T18:31:24;15.70;99.90
21037;DHT22;10677;50.942;4.028;2022-10-19T18:34:01;15.80;99.90